createdAt,value
2023-04-15T09:44:27.109Z,10.53
2023-04-15T09:49:28.971Z,10.55
2023-04-15T09:54:36.493Z,10.45
2023-04-15T09:59:38.235Z,10.38
2023-04-15T10:04:44.456Z,10.44
2023-04-15T10:09:47.084Z,10.83
2023-04-15T10:14:57.292Z,11.37
2023-04-15T10:20:02.380Z,11.83
2023-04-15T10:25:05.924Z,11.92
2023-04-15T10:30:09.512Z,11.99
2023-04-15T10:35:12.097Z,12.06
2023-04-15T10:40:31.790Z,12.17
2023-04-15T10:45:36.746Z,12.43
2023-04-15T10:50:39.467Z,12.53
2023-04-15T10:55:41.270Z,12.59
2023-04-15T11:00:52.370Z,12.37
2023-04-15T11:05:54.351Z,12.19
2023-04-15T11:10:55.996Z,12.44
2023-04-15T11:16:00.398Z,12.81
2023-04-15T11:21:04.686Z,12.96
2023-04-15T11:26:09.915Z,13.17
2023-04-15T11:31:14.346Z,13.47
2023-04-15T11:36:15.923Z,13.65
2023-04-15T11:41:22.017Z,13.77
2023-04-15T11:46:31.939Z,13.96
2023-04-15T11:51:35.517Z,14.40
2023-04-15T11:56:37.040Z,14.91
2023-04-15T12:01:47.662Z,15.36
2023-04-15T12:06:49.461Z,16.40
2023-04-15T12:11:58.430Z,17.44
2023-04-15T12:17:06.787Z,17.30
2023-04-15T12:22:15.263Z,16.12
2023-04-15T12:27:18.106Z,14.75
2023-04-15T12:32:22.991Z,13.84
2023-04-15T12:37:26.196Z,13.36
2023-04-15T12:42:28.057Z,13.31
2023-04-15T12:47:30.075Z,14.00
2023-04-15T12:52:31.605Z,15.53
2023-04-15T12:57:33.107Z,16.00
2023-04-15T13:02:34.907Z,15.65
2023-04-15T13:07:36.691Z,15.45
2023-04-15T13:12:38.253Z,14.81
2023-04-15T13:17:39.794Z,14.65
2023-04-15T13:22:41.819Z,14.81
2023-04-15T13:27:43.778Z,15.12
2023-04-15T13:32:45.758Z,15.53
2023-04-15T13:37:47.729Z,15.59
2023-04-15T13:42:49.748Z,16.17
2023-04-15T13:47:51.378Z,16.81
2023-04-15T13:52:53.009Z,17.36
2023-04-15T13:57:55.036Z,17.50
2023-04-15T14:02:57.239Z,17.21
2023-04-15T14:07:59.818Z,18.20
2023-04-15T14:13:01.376Z,18.06
2023-04-15T14:18:03.194Z,19.04
2023-04-15T14:23:04.830Z,18.18
2023-04-15T14:28:06.564Z,16.35
2023-04-15T14:33:08.308Z,15.38
2023-04-15T14:38:11.513Z,15.43
2023-04-15T14:43:13.423Z,15.86
2023-04-15T14:48:14.955Z,16.59
2023-04-15T14:53:16.641Z,15.94
2023-04-15T14:58:18.369Z,15.33
2023-04-15T15:03:20.156Z,15.34
2023-04-15T15:08:21.787Z,15.29
2023-04-15T15:13:23.290Z,16.10
2023-04-15T15:18:26.198Z,15.80
2023-04-15T15:23:27.961Z,15.80
2023-04-15T15:28:29.669Z,16.69
2023-04-15T15:33:31.969Z,17.26
2023-04-15T15:38:33.760Z,17.49
2023-04-15T15:43:35.928Z,17.24
2023-04-15T15:48:37.630Z,17.17
2023-04-15T15:53:39.167Z,16.41
2023-04-15T15:58:43.850Z,16.24
2023-04-15T16:03:45.881Z,16.34
2023-04-15T16:08:47.459Z,15.52
2023-04-15T16:13:48.984Z,14.79
2023-04-15T16:18:51.522Z,14.61
2023-04-15T16:23:53.626Z,14.68
2023-04-15T16:28:55.253Z,14.02
2023-04-15T16:33:57.570Z,13.73
2023-04-15T16:38:59.458Z,13.67
2023-04-15T16:44:02.078Z,13.46
2023-04-15T16:49:04.298Z,13.02
2023-04-15T16:54:06.444Z,12.56
2023-04-15T16:59:07.985Z,12.25
2023-04-15T17:04:09.751Z,11.92
2023-04-15T17:09:11.386Z,11.71
2023-04-15T17:14:12.953Z,11.43
2023-04-15T17:19:14.431Z,11.28
2023-04-15T17:24:16.576Z,11.17
2023-04-15T17:29:18.082Z,11.05
2023-04-15T17:34:19.716Z,10.90
2023-04-15T17:39:21.329Z,10.78
2023-04-15T17:44:25.060Z,10.68
2023-04-15T17:49:27.326Z,10.59
2023-04-15T17:54:28.914Z,10.44
2023-04-15T17:59:30.428Z,10.28
2023-04-15T18:04:32.056Z,10.15
2023-04-15T18:09:33.957Z,10.02
2023-04-15T18:14:36.601Z,9.93
2023-04-15T18:19:38.098Z,9.84
2023-04-15T18:24:39.646Z,9.79
2023-04-15T18:29:41.722Z,9.76
2023-04-15T18:34:43.365Z,9.73
2023-04-15T18:39:45.007Z,9.70
2023-04-15T18:44:46.660Z,9.64
2023-04-15T18:49:48.226Z,9.60
2023-04-15T18:54:49.996Z,9.54
2023-04-15T18:59:51.928Z,9.50
2023-04-15T19:04:53.420Z,9.44
2023-04-15T19:09:54.996Z,9.37
2023-04-15T19:14:56.588Z,9.34
2023-04-15T19:19:58.155Z,9.32
2023-04-15T19:25:00.100Z,9.30
2023-04-15T19:30:03.358Z,9.27
2023-04-15T19:35:05.860Z,9.27
2023-04-15T19:40:09.535Z,9.25
2023-04-15T19:45:11.568Z,9.19
2023-04-15T19:50:13.196Z,9.15
2023-04-15T19:55:14.901Z,9.11
2023-04-15T20:00:16.956Z,9.06
2023-04-15T20:05:18.826Z,9.03
2023-04-15T20:10:21.836Z,9.03
2023-04-15T20:15:24.135Z,9.00
2023-04-15T20:20:26.339Z,8.97
2023-04-15T20:25:27.882Z,8.95
2023-04-15T20:30:29.636Z,8.95
2023-04-15T20:35:31.563Z,8.92
2023-04-15T20:40:33.938Z,8.86
2023-04-15T20:45:35.573Z,8.82
2023-04-15T20:50:37.074Z,8.80
2023-04-15T20:55:40.078Z,8.76
2023-04-15T21:00:41.614Z,8.70
2023-04-15T21:05:43.143Z,8.70
2023-04-15T21:10:49.686Z,8.69
2023-04-15T21:15:54.107Z,8.66
2023-04-15T21:21:04.888Z,8.63
2023-04-15T21:26:06.403Z,8.66
2023-04-15T21:31:08.380Z,8.63
2023-04-15T21:36:09.955Z,8.62
2023-04-15T21:41:11.860Z,8.62
2023-04-15T21:46:23.229Z,8.60
2023-04-15T21:51:26.888Z,8.56
2023-04-15T21:56:28.698Z,8.54
2023-04-15T22:01:30.729Z,8.54
2023-04-15T22:06:32.346Z,8.53
2023-04-15T22:11:34.255Z,8.53
2023-04-15T22:16:35.938Z,8.54
2023-04-15T22:21:37.494Z,8.53
2023-04-15T22:26:39.477Z,8.52
2023-04-15T22:31:41.985Z,8.51
2023-04-15T22:36:43.949Z,8.52
2023-04-15T22:41:46.813Z,8.49
2023-04-15T22:46:51.740Z,8.44
2023-04-15T22:51:53.244Z,8.43
2023-04-15T22:56:55.043Z,8.44
2023-04-15T23:01:58.225Z,8.40
2023-04-15T23:07:00.119Z,8.37
2023-04-15T23:12:02.929Z,8.36
2023-04-15T23:17:04.465Z,8.35
2023-04-15T23:22:07.222Z,8.30
2023-04-15T23:27:08.786Z,8.28
2023-04-15T23:32:10.536Z,8.27
2023-04-15T23:37:12.032Z,8.23
2023-04-15T23:42:13.916Z,8.20
2023-04-15T23:47:16.150Z,8.18
2023-04-15T23:52:18.108Z,8.15
2023-04-15T23:57:19.603Z,8.11
